Time;durP1;ratioP1;P1;durP2;ratioP2;P2;SDS_P1;SDS_P2;PMS_P1;PMS_P2;Temp;Humidity;BMP_temperature;BMP_pressure;BME280_temperature;BME280_humidity;BME280_pressure;Samples;Min_cycle;Max_cycle;Signal;HPM_P1;HPM_P2
2022/07/28 00:00:41;;;;;;;6.58;4.30;;;;;;;13.24;80.41;100530.91;2772145;82;21650;-88
2022/07/28 00:04:45;;;;;;;7.15;4.37;;;;;;;13.21;80.42;100537.88;2830038;82;21000;-87
2022/07/28 00:08:46;;;;;;;5.95;4.22;;;;;;;13.26;80.38;100538.77;2797363;83;21117;-88
2022/07/28 00:12:47;;;;;;;8.83;4.35;;;;;;;13.28;80.19;100543.01;2827795;82;21076;-86
2022/07/28 00:16:49;;;;;;;5.33;4.70;;;;;;;13.29;79.70;100542.53;2840152;82;21725;-89
2022/07/28 00:20:50;;;;;;;7.28;5.03;;;;;;;13.28;79.46;100544.34;2800586;82;21023;-88
2022/07/28 00:24:51;;;;;;;10.08;4.95;;;;;;;13.19;79.27;100541.17;2827531;83;21063;-87
2022/07/28 00:28:52;;;;;;;4.62;3.58;;;;;;;13.13;79.49;100536.36;2829170;83;21028;-88
2022/07/28 00:32:54;;;;;;;6.67;4.47;;;;;;;13.10;79.63;100538.83;2821531;83;21127;-89
2022/07/28 00:36:55;;;;;;;7.30;4.92;;;;;;;13.08;79.01;100527.91;2801415;83;21048;-88
2022/07/28 00:41:11;;;;;;;7.87;3.33;;;;;;;13.02;78.39;100526.62;2804201;83;21028;-88
2022/07/28 00:45:13;;;;;;;7.28;3.00;;;;;;;12.88;78.32;100534.53;2843679;83;21035;-88
2022/07/28 00:49:14;;;;;;;6.60;4.53;;;;;;;12.62;77.45;100522.98;2771779;84;21509;-87
2022/07/28 00:53:16;;;;;;;6.87;3.60;;;;;;;12.42;77.79;100528.22;2827611;83;21036;-86
2022/07/28 00:57:19;;;;;;;7.03;5.90;;;;;;;12.16;78.66;100529.58;2795160;83;21055;-87
2022/07/28 01:01:22;;;;;;;12.45;4.78;;;;;;;12.04;77.96;100531.47;2805331;83;21082;-87
2022/07/28 01:05:28;;;;;;;5.72;4.17;;;;;;;11.86;77.74;100532.86;2823231;83;21096;-87
2022/07/28 01:09:37;;;;;;;8.70;3.53;;;;;;;11.78;78.41;100532.64;2800230;82;21027;-88
2022/07/28 01:14:00;;;;;;;7.60;3.77;;;;;;;11.79;78.75;100539.69;2845256;82;21060;-87
2022/07/28 01:18:19;;;;;;;4.58;3.17;;;;;;;11.83;79.35;100539.78;2831968;82;21051;-89
2022/07/28 01:22:25;;;;;;;3.80;2.67;;;;;;;11.92;79.57;100539.51;2848019;82;21031;-87
2022/07/28 01:26:46;;;;;;;;;;;;;;;11.97;79.52;100541.77;2857320;82;21090;-86
2022/07/28 01:30:55;;;;;;;38.40;6.72;;;;;;;11.93;78.59;100546.53;2802388;84;20109;-88
2022/07/28 01:35:10;;;;;;;14.98;4.92;;;;;;;11.91;78.79;100545.81;2814995;84;21023;-87
2022/07/28 01:39:14;;;;;;;9.20;4.60;;;;;;;11.94;79.05;100551.36;2824338;82;21020;-88
2022/07/28 01:43:19;;;;;;;6.12;4.70;;;;;;;11.92;78.39;100553.31;2871063;82;21038;-87
2022/07/28 01:47:22;;;;;;;6.12;4.05;;;;;;;11.89;78.34;100547.77;2831240;82;21067;-87
2022/07/28 01:51:28;;;;;;;5.47;3.98;;;;;;;11.87;78.78;100548.35;2811497;82;21038;-87
2022/07/28 01:55:30;;;;;;;6.40;3.33;;;;;;;11.78;79.68;100547.30;2824175;82;21054;-87
2022/07/28 01:59:32;;;;;;;6.15;4.45;;;;;;;11.57;80.46;100546.77;2858501;82;21760;-86
2022/07/28 02:03:36;;;;;;;4.05;3.27;;;;;;;11.54;81.08;100551.02;2845788;82;21050;-88
2022/07/28 02:07:40;;;;;;;14.50;4.40;;;;;;;11.63;80.86;100552.59;2827472;82;21058;-88
2022/07/28 02:11:44;;;;;;;5.30;4.10;;;;;;;11.65;81.03;100555.97;2807358;83;21075;-88
2022/07/28 02:15:46;;;;;;;9.20;4.83;;;;;;;11.68;81.01;100548.55;2828596;82;21021;-88
2022/07/28 02:19:48;;;;;;;6.47;4.35;;;;;;;11.74;81.03;100549.86;2812091;83;21008;-87
2022/07/28 02:23:52;;;;;;;4.62;3.77;;;;;;;11.77;80.15;100550.11;2837052;83;21068;-86
2022/07/28 02:28:01;;;;;;;6.47;4.15;;;;;;;11.64;80.68;100548.95;2816994;83;21558;-88
2022/07/28 02:32:19;;;;;;;7.25;4.50;;;;;;;11.55;80.95;100555.37;2794880;83;21578;-86
2022/07/28 02:36:28;;;;;;;4.35;3.95;;;;;;;11.41;79.09;100553.84;2788233;84;21059;-87
2022/07/28 02:40:34;;;;;;;4.20;3.37;;;;;;;11.38;78.50;100547.91;2814783;84;21051;-87
2022/07/28 02:44:44;;;;;;;7.37;2.75;;;;;;;11.33;78.18;100555.44;2812920;82;21047;-86
2022/07/28 02:48:49;;;;;;;5.10;3.52;;;;;;;11.13;77.45;100560.55;2798726;83;21511;-88
2022/07/28 02:52:55;;;;;;;5.70;2.77;;;;;;;10.86;77.37;100558.62;2808224;82;22157;-87
2022/07/28 02:56:59;;;;;;;9.98;4.08;;;;;;;10.70;77.56;100564.78;2725046;84;21072;-87
2022/07/28 03:01:01;;;;;;;2.30;2.10;;;;;;;10.73;78.51;100567.69;2793034;82;21023;-91
2022/07/28 03:05:04;;;;;;;1.07;0.98;;;;;;;10.79;77.56;100577.38;2784352;84;21424;-86
2022/07/28 03:09:08;;;;;;;3.15;2.87;;;;;;;10.75;76.57;100580.39;2805860;81;21063;-88
2022/07/28 03:13:10;;;;;;;3.92;2.98;;;;;;;10.66;76.76;100580.16;2884659;81;21040;-90
2022/07/28 03:17:12;;;;;;;16.52;4.37;;;;;;;10.61;77.50;100590.31;2892089;80;21044;-88
2022/07/28 03:21:14;;;;;;;5.65;3.92;;;;;;;10.56;78.24;100600.44;2902153;80;21063;-87
2022/07/28 03:25:20;;;;;;;6.75;3.45;;;;;;;10.60;78.76;100600.56;2881080;81;21000;-87
2022/07/28 03:29:24;;;;;;;6.90;4.17;;;;;;;10.68;79.34;100604.83;2888313;81;21015;-87
2022/07/28 03:33:26;;;;;;;45.92;10.10;;;;;;;10.71;79.85;100603.25;2895124;81;21043;-86
2022/07/28 03:37:47;;;;;;;36.30;8.53;;;;;;;10.80;80.41;100607.48;2892532;81;21042;-87
2022/07/28 03:41:51;;;;;;;22.32;6.28;;;;;;;10.90;80.11;100611.13;2853330;81;21075;-86
2022/07/28 03:45:52;;;;;;;18.02;6.10;;;;;;;10.96;80.39;100611.14;2892970;80;21031;-87
2022/07/28 03:49:53;;;;;;;13.08;5.30;;;;;;;11.08;80.44;100607.99;2913654;80;21031;-88
2022/07/28 03:53:57;;;;;;;11.73;5.42;;;;;;;11.07;81.60;100611.62;2919074;80;21092;-87
2022/07/28 03:57:58;;;;;;;8.60;4.40;;;;;;;11.14;81.78;100616.81;2861317;80;21052;-88
2022/07/28 04:02:01;;;;;;;16.50;5.20;;;;;;;11.32;81.41;100622.98;2908674;80;21514;-89
2022/07/28 04:06:02;;;;;;;6.22;3.98;;;;;;;11.42;81.68;100623.45;2887195;80;21059;-86
2022/07/28 04:10:07;;;;;;;8.88;4.00;;;;;;;11.64;82.48;100623.05;2889485;80;21075;-86
2022/07/28 04:14:08;;;;;;;12.80;4.87;;;;;;;11.97;83.40;100624.41;2916944;81;21719;-87
2022/07/28 04:18:10;;;;;;;7.53;4.40;;;;;;;12.48;86.15;100623.37;2882914;80;21040;-88
2022/07/28 04:22:11;;;;;;;7.58;3.58;;;;;;;13.60;86.59;100620.47;2940983;80;21015;-89
2022/07/28 04:26:12;;;;;;;11.50;4.65;;;;;;;15.09;82.76;100614.84;2870651;80;21054;-88
2022/07/28 04:30:17;;;;;;;7.80;3.52;;;;;;;16.51;77.66;100607.27;2921295;80;21040;-89
2022/07/28 04:34:18;;;;;;;15.58;5.55;;;;;;;17.76;73.89;100596.08;2958085;80;20991;-87
2022/07/28 04:38:19;;;;;;;7.03;4.33;;;;;;;18.84;70.07;100596.03;2887570;80;21011;-88
2022/07/28 04:42:21;;;;;;;5.53;2.75;;;;;;;19.76;67.04;100610.00;2912312;80;21022;-86
2022/07/28 04:46:22;;;;;;;3.98;2.37;;;;;;;20.64;64.20;100602.87;2910162;80;21003;-89
2022/07/28 04:50:23;;;;;;;9.30;3.25;;;;;;;21.42;60.97;100610.64;2857567;81;21019;-88
2022/07/28 04:54:25;;;;;;;6.50;2.75;;;;;;;22.01;59.14;100614.22;2921413;80;20976;-89
2022/07/28 04:58:26;;;;;;;23.27;5.80;;;;;;;22.32;53.81;100604.88;2937789;79;21027;-87
2022/07/28 05:02:27;;;;;;;6.53;2.90;;;;;;;22.28;53.19;100605.47;2891389;81;21000;-88
2022/07/28 05:06:29;;;;;;;6.50;1.77;;;;;;;22.50;55.64;100596.82;2915013;80;21020;-88
2022/07/28 05:10:30;;;;;;;5.85;2.77;;;;;;;22.76;52.02;100594.81;2832458;81;20978;-88
2022/07/28 05:14:31;;;;;;;3.17;1.82;;;;;;;22.69;54.04;100597.98;2913916;79;21066;-88
2022/07/28 05:18:39;;;;;;;2.67;1.22;;;;;;;22.93;53.75;100595.84;2913672;79;21026;-89
2022/07/28 05:22:46;;;;;;;6.65;2.47;;;;;;;23.06;51.74;100591.83;2948197;79;21058;-89
2022/07/28 05:26:47;;;;;;;4.90;1.47;;;;;;;23.11;51.91;100593.95;2921144;81;21020;-88
2022/07/28 05:30:49;;;;;;;3.22;2.12;;;;;;;23.01;51.96;100596.20;2932323;81;21040;-88
2022/07/28 05:34:50;;;;;;;3.62;1.75;;;;;;;22.92;52.14;100600.42;2930544;81;21027;-88
2022/07/28 05:38:51;;;;;;;2.75;1.80;;;;;;;23.62;50.54;100601.38;2930054;77;21022;-88
2022/07/28 05:42:52;;;;;;;4.65;2.05;;;;;;;24.01;50.32;100601.64;2917061;81;21002;-87
2022/07/28 05:46:53;;;;;;;6.12;3.15;;;;;;;23.99;50.25;100614.09;2929178;81;21051;-89
2022/07/28 05:50:55;;;;;;;5.33;3.17;;;;;;;23.91;50.76;100623.78;2920772;79;21011;-88
2022/07/28 05:54:56;;;;;;;7.90;3.50;;;;;;;23.72;51.20;100611.84;2924593;80;21466;-88
2022/07/28 05:58:57;;;;;;;5.08;3.60;;;;;;;23.67;51.62;100617.34;2918380;81;21002;-87
2022/07/28 06:03:01;;;;;;;5.15;3.42;;;;;;;23.85;51.30;100616.47;2926226;79;20992;-86
2022/07/28 06:07:03;;;;;;;6.75;2.98;;;;;;;24.12;50.27;100620.09;2942239;79;21015;-88
2022/07/28 06:11:08;;;;;;;5.00;3.25;;;;;;;24.34;51.14;100622.06;2940472;79;21087;-88
2022/07/28 06:15:25;;;;;;;6.33;3.30;;;;;;;24.56;51.12;100625.92;2901115;80;20995;-88
2022/07/28 06:19:27;;;;;;;5.78;2.52;;;;;;;24.39;49.88;100629.60;2919605;80;21035;-89
2022/07/28 06:23:29;;;;;;;6.53;3.85;;;;;;;24.52;49.65;100625.53;2897902;80;21015;-89
2022/07/28 06:27:30;;;;;;;5.62;3.90;;;;;;;24.78;50.50;100620.30;2946744;80;20995;-88
2022/07/28 06:31:32;;;;;;;5.67;3.50;;;;;;;24.80;49.30;100623.64;2938017;80;21015;-89
2022/07/28 06:35:33;;;;;;;12.95;4.08;;;;;;;24.57;50.01;100633.06;2940035;80;20999;-89
2022/07/28 06:39:34;;;;;;;7.03;2.95;;;;;;;24.55;48.63;100624.80;2900461;80;21031;-88
2022/07/28 06:43:36;;;;;;;6.37;3.58;;;;;;;24.60;49.33;100630.42;2855138;82;21004;-88
2022/07/28 06:47:37;;;;;;;5.95;2.92;;;;;;;24.86;48.65;100622.78;2909148;81;21047;-88
2022/07/28 06:51:39;;;;;;;3.83;2.58;;;;;;;25.32;47.32;100619.61;2922755;80;21054;-88
2022/07/28 06:55:41;;;;;;;3.95;3.08;;;;;;;25.88;47.34;100618.61;2889794;81;38019;-89
2022/07/28 06:59:43;;;;;;;5.28;3.20;;;;;;;25.90;46.04;100621.95;2890705;80;21036;-89
2022/07/28 07:03:44;;;;;;;3.30;1.80;;;;;;;26.05;45.67;100628.98;2914490;80;21020;-89
2022/07/28 07:07:45;;;;;;;5.67;1.90;;;;;;;26.34;45.41;100625.32;2908268;80;21011;-90
2022/07/28 07:11:46;;;;;;;5.58;2.65;;;;;;;26.59;44.71;100619.85;2912627;79;21079;-89
2022/07/28 07:15:48;;;;;;;3.55;1.90;;;;;;;26.87;45.41;100626.73;2903738;79;21039;-88
2022/07/28 07:19:49;;;;;;;3.15;1.95;;;;;;;26.84;44.47;100625.79;2908250;80;21039;-89
2022/07/28 07:23:50;;;;;;;4.87;2.22;;;;;;;26.46;44.41;100633.61;2923676;80;21316;-89
2022/07/28 07:27:51;;;;;;;4.28;2.00;;;;;;;26.35;43.51;100634.66;2883750;81;21475;-90
2022/07/28 07:31:52;;;;;;;2.52;1.50;;;;;;;26.30;43.70;100629.01;2919415;80;21352;-88
2022/07/28 07:35:54;;;;;;;4.83;1.72;;;;;;;26.05;45.12;100631.16;2827690;80;21553;-88
2022/07/28 07:39:55;;;;;;;3.83;1.80;;;;;;;26.00;44.24;100625.55;2937430;80;20956;-89
2022/07/28 07:43:56;;;;;;;4.40;1.30;;;;;;;26.20;44.44;100621.88;2937295;80;20984;-89
2022/07/28 07:47:57;;;;;;;1.77;0.70;;;;;;;26.26;42.91;100611.43;2912053;81;21441;-89
2022/07/28 07:51:59;;;;;;;3.90;1.60;;;;;;;26.64;43.30;100607.73;2912978;81;20993;-90
2022/07/28 07:56:01;;;;;;;5.33;1.62;;;;;;;26.91;42.61;100612.92;2925201;81;21035;-88
2022/07/28 08:00:03;;;;;;;3.02;0.72;;;;;;;27.15;41.95;100611.73;2870842;81;21531;-89
2022/07/28 08:04:05;;;;;;;2.35;0.98;;;;;;;27.00;42.20;100609.91;2891477;80;21440;-88
2022/07/28 08:08:06;;;;;;;3.85;0.78;;;;;;;26.90;40.66;100611.27;2923612;80;21032;-87
2022/07/28 08:12:08;;;;;;;3.90;1.27;;;;;;;26.89;41.22;100608.23;2950557;79;21060;-87
2022/07/28 08:16:09;;;;;;;3.30;1.10;;;;;;;26.58;41.74;100610.52;2916963;80;21059;-88
2022/07/28 08:20:11;;;;;;;2.25;0.70;;;;;;;26.48;40.69;100608.30;2902691;80;21016;-87
2022/07/28 08:24:13;;;;;;;1.87;0.72;;;;;;;26.66;40.10;100611.06;2895898;80;21035;-87
2022/07/28 08:28:15;;;;;;;4.03;1.25;;;;;;;26.69;40.53;100603.48;2899465;80;20987;-88
2022/07/28 08:32:16;;;;;;;4.25;1.47;;;;;;;26.63;40.54;100606.61;2896290;81;21817;-87
2022/07/28 08:36:17;;;;;;;4.10;0.98;;;;;;;26.69;40.51;100604.34;2931228;78;21026;-88
2022/07/28 08:40:19;;;;;;;1.22;0.65;;;;;;;26.58;41.40;100604.55;2920526;80;20992;-87
2022/07/28 08:44:25;;;;;;;4.80;0.95;;;;;;;26.60;40.96;100598.34;2834152;80;21067;-88
2022/07/28 08:48:34;;;;;;;6.45;1.42;;;;;;;26.65;41.65;100597.13;2867074;81;21056;-88
2022/07/28 08:52:39;;;;;;;8.15;1.27;;;;;;;26.76;41.22;100591.99;2914279;80;21016;-87
2022/07/28 08:56:43;;;;;;;3.10;0.88;;;;;;;26.60;40.99;100593.39;2898313;80;21066;-89
2022/07/28 09:00:47;;;;;;;2.43;1.10;;;;;;;26.55;40.50;100604.16;2892589;80;21114;-86
2022/07/28 09:04:49;;;;;;;1.87;1.17;;;;;;;26.52;41.26;100601.33;2900234;81;21099;-84
2022/07/28 09:08:51;;;;;;;2.85;0.50;;;;;;;26.59;40.83;100596.67;2897916;80;21392;-88
2022/07/28 09:12:52;;;;;;;2.33;0.90;;;;;;;26.62;41.52;100584.45;2877340;80;21019;-89
2022/07/28 09:16:54;;;;;;;2.45;1.10;;;;;;;26.52;41.89;100596.73;2888032;80;21043;-87
2022/07/28 09:20:55;;;;;;;4.00;0.90;;;;;;;26.51;40.95;100595.58;2888680;82;21023;-88
2022/07/28 09:24:57;;;;;;;5.62;1.22;;;;;;;26.49;41.02;100587.64;2888093;80;20995;-89
2022/07/28 09:29:00;;;;;;;4.10;1.25;;;;;;;26.49;40.48;100592.24;2870360;81;21027;-87
2022/07/28 09:33:23;;;;;;;1.80;0.82;;;;;;;26.40;40.58;100590.88;2932185;80;21095;-88
2022/07/28 09:37:26;;;;;;;3.50;1.02;;;;;;;26.37;40.58;100582.60;2885308;80;20992;-86
2022/07/28 09:41:27;;;;;;;3.15;1.40;;;;;;;26.43;40.55;100577.61;2939049;79;21004;-89
2022/07/28 09:45:29;;;;;;;9.68;1.07;;;;;;;26.59;40.32;100580.30;2909808;81;21011;-89
2022/07/28 09:49:42;;;;;;;2.45;1.25;;;;;;;26.71;39.91;100575.45;2897824;81;20964;-88
2022/07/28 09:53:43;;;;;;;3.80;1.25;;;;;;;26.70;40.33;100573.27;2881360;81;21063;-89
2022/07/28 09:57:45;;;;;;;2.02;1.17;;;;;;;26.74;40.05;100572.29;2870875;80;21004;-87
2022/07/28 10:01:54;;;;;;;4.40;1.22;;;;;;;26.78;40.05;100577.59;2929580;78;21011;-87
2022/07/28 10:05:57;;;;;;;2.60;1.00;;;;;;;26.69;40.29;100577.56;2926983;80;21003;-88
2022/07/28 10:10:10;;;;;;;3.00;0.90;;;;;;;26.62;40.02;100568.09;2917813;80;21094;-89
2022/07/28 10:14:12;;;;;;;4.50;1.05;;;;;;;26.71;39.78;100569.47;2883028;80;21126;-89
2022/07/28 10:18:13;;;;;;;4.03;1.10;;;;;;;26.90;39.69;100564.05;2930670;80;21028;-90
2022/07/28 10:22:18;;;;;;;1.42;1.32;;;;;;;26.88;39.08;100562.90;2909225;80;21046;-89
2022/07/28 10:26:29;;;;;;;1.75;0.95;;;;;;;26.77;39.37;100560.91;2896228;81;21003;-87
2022/07/28 10:30:35;;;;;;;7.65;1.10;;;;;;;26.82;39.71;100556.97;2926519;80;21630;-88
2022/07/28 10:34:47;;;;;;;4.97;1.98;;;;;;;26.92;39.94;100561.92;2900758;81;21559;-88
2022/07/28 10:38:51;;;;;;;4.47;0.70;;;;;;;26.78;40.22;100555.76;2884112;80;21625;-89
2022/07/28 10:42:53;;;;;;;8.23;2.52;;;;;;;26.88;40.91;100549.80;2904885;80;21337;-86
2022/07/28 10:46:56;;;;;;;1.67;0.93;;;;;;;27.15;40.52;100547.58;2935538;79;20964;-89
2022/07/28 10:50:59;;;;;;;9.98;1.05;;;;;;;27.14;40.10;100537.72;2874661;81;21081;-89
2022/07/28 10:55:22;;;;;;;3.27;0.68;;;;;;;27.16;39.33;100534.74;2869010;81;21019;-88
2022/07/28 10:59:48;;;;;;;1.35;1.10;;;;;;;27.20;38.77;100530.48;2934287;80;21594;-87
2022/07/28 11:03:49;;;;;;;3.65;1.50;;;;;;;27.21;39.07;100524.80;2913317;80;21086;-88
2022/07/28 11:07:51;;;;;;;3.17;0.80;;;;;;;27.27;39.10;100520.84;2899463;80;21032;-87
2022/07/28 11:11:59;;;;;;;3.62;0.85;;;;;;;27.34;39.50;100522.97;2928854;80;21618;-88
2022/07/28 11:16:19;;;;;;;8.20;1.60;;;;;;;27.26;38.68;100520.02;2875284;81;21005;-88
2022/07/28 11:20:20;;;;;;;1.65;0.70;;;;;;;27.14;38.61;100517.25;2872545;79;21534;-89
2022/07/28 11:24:21;;;;;;;3.98;0.70;;;;;;;26.55;38.62;100510.91;2939074;80;20988;-87
2022/07/28 11:28:23;;;;;;;4.62;1.02;;;;;;;26.36;39.54;100520.43;2914988;80;21019;-88
2022/07/28 11:32:30;;;;;;;4.87;1.17;;;;;;;26.36;39.55;100517.70;2884584;80;21019;-88
2022/07/28 11:37:06;;;;;;;3.30;1.05;;;;;;;26.30;39.50;100514.50;2906779;80;21051;-88
2022/07/28 11:41:13;;;;;;;2.95;0.85;;;;;;;26.28;39.33;100517.98;2897815;81;21377;-87
2022/07/28 11:45:23;;;;;;;4.50;0.93;;;;;;;26.32;39.75;100511.01;2924719;80;21016;-86
2022/07/28 11:49:26;;;;;;;4.30;1.62;;;;;;;26.33;39.34;100508.59;2887907;80;21609;-88
2022/07/28 11:53:48;;;;;;;1.70;0.65;;;;;;;26.44;40.48;100501.58;2881729;80;21020;-86
2022/07/28 11:57:51;;;;;;;1.80;0.95;;;;;;;26.34;40.67;100501.26;2875534;81;21003;-88
2022/07/28 12:01:55;;;;;;;9.78;2.70;;;;;;;26.38;41.10;100495.65;2894794;80;20983;-88
2022/07/28 12:05:57;;;;;;;2.92;1.05;;;;;;;26.51;40.31;100494.66;2892065;79;21019;-87
2022/07/28 12:09:59;;;;;;;4.08;1.10;;;;;;;26.59;40.17;100496.26;2906118;80;20960;-86
2022/07/28 12:14:06;;;;;;;4.87;1.77;;;;;;;26.69;40.76;100480.20;2903484;80;20992;-89
2022/07/28 12:18:11;;;;;;;1.27;0.70;;;;;;;26.73;40.73;100483.31;2927795;80;21021;-87
2022/07/28 12:22:13;;;;;;;4.00;0.90;;;;;;;26.85;39.83;100476.55;2891524;80;21102;-89
2022/07/28 12:26:29;;;;;;;1.30;0.88;;;;;;;26.84;39.48;100483.08;2893399;80;21047;-88
2022/07/28 12:30:32;;;;;;;9.05;1.57;;;;;;;26.80;39.60;100479.42;2931369;80;20992;-88
2022/07/28 12:34:34;;;;;;;3.98;1.65;;;;;;;26.88;39.73;100475.58;2908671;80;21058;-87
2022/07/28 12:38:35;;;;;;;2.85;0.70;;;;;;;26.86;39.28;100474.98;2896222;80;21012;-88
2022/07/28 12:42:36;;;;;;;3.30;0.90;;;;;;;26.80;39.59;100470.41;2884131;79;21046;-83
2022/07/28 12:46:38;;;;;;;2.02;0.68;;;;;;;26.85;39.41;100471.95;2872200;80;21009;-87
2022/07/28 12:50:40;;;;;;;4.03;1.00;;;;;;;27.01;39.28;100472.38;2884339;80;21957;-87
2022/07/28 12:54:41;;;;;;;1.17;0.72;;;;;;;27.13;38.57;100474.63;2896824;81;21047;-88
2022/07/28 12:58:42;;;;;;;3.98;0.80;;;;;;;27.22;38.25;100456.84;2894488;81;20987;-88
2022/07/28 13:02:47;;;;;;;2.60;1.05;;;;;;;27.31;39.15;100455.13;2863492;81;20996;-86
2022/07/28 13:06:54;;;;;;;;;;;;;;;27.28;38.72;100465.16;2875763;81;21008;-88
2022/07/28 13:10:55;;;;;;;3.20;0.72;;;;;;;27.25;39.15;100448.73;2870948;80;20101;-87
2022/07/28 13:15:01;;;;;;;2.47;1.02;;;;;;;27.28;39.17;100451.51;2917300;80;20996;-87
2022/07/28 13:19:04;;;;;;;2.20;0.90;;;;;;;27.42;39.04;100443.42;2921040;80;21006;-87
2022/07/28 13:23:05;;;;;;;3.98;0.80;;;;;;;27.54;39.45;100435.82;2853783;79;21018;-88
2022/07/28 13:27:07;;;;;;;3.85;1.25;;;;;;;27.64;38.23;100441.00;2888214;80;21589;-89
2022/07/28 13:31:09;;;;;;;2.27;1.07;;;;;;;27.76;38.48;100441.00;2919210;80;21078;-88
2022/07/28 13:35:10;;;;;;;1.72;0.80;;;;;;;27.73;37.67;100431.92;2909998;81;20987;-88
2022/07/28 13:39:12;;;;;;;2.17;0.72;;;;;;;27.79;37.12;100439.16;2910900;80;21073;-88
2022/07/28 13:43:14;;;;;;;4.47;0.68;;;;;;;27.86;36.99;100433.58;2852757;81;21074;-86
2022/07/28 13:47:15;;;;;;;3.00;0.80;;;;;;;27.87;37.64;100431.66;2840160;82;21070;-88
2022/07/28 13:51:16;;;;;;;3.40;1.22;;;;;;;28.01;38.15;100416.69;2828957;82;20964;-89
2022/07/28 13:55:18;;;;;;;3.75;1.25;;;;;;;27.99;38.70;100407.05;2876142;82;21063;-88
2022/07/28 13:59:28;;;;;;;1.60;0.80;;;;;;;27.99;38.70;100407.05;2843940;83;21051;-87
2022/07/28 14:03:31;;;;;;;8.03;1.90;;;;;;;28.33;37.86;100403.17;2837626;82;21010;-87
2022/07/28 14:07:33;;;;;;;2.55;1.20;;;;;;;28.38;37.41;100401.08;2846164;82;21463;-89
2022/07/28 14:11:34;;;;;;;1.27;0.60;;;;;;;28.38;37.41;100401.08;2822165;82;21026;-86
2022/07/28 14:15:35;;;;;;;6.30;1.30;;;;;;;28.40;37.13;100400.30;2788749;85;21033;-89
2022/07/28 14:19:39;;;;;;;1.35;0.60;;;;;;;28.48;37.78;100395.80;2764698;84;21059;-85
2022/07/28 14:23:41;;;;;;;1.67;0.85;;;;;;;28.41;37.45;100398.70;2812859;83;21039;-88
2022/07/28 14:27:42;;;;;;;6.55;1.45;;;;;;;28.40;37.43;100398.94;2806246;84;21102;-88
2022/07/28 14:31:43;;;;;;;1.30;0.98;;;;;;;28.49;37.73;100390.63;2828585;82;21072;-90
2022/07/28 14:35:45;;;;;;;1.15;0.60;;;;;;;28.65;36.90;100391.22;2815649;82;21043;-89
2022/07/28 14:39:47;;;;;;;4.72;1.10;;;;;;;28.79;37.17;100388.20;2813886;84;21135;-88
2022/07/28 14:43:50;;;;;;;0.68;0.57;;;;;;;28.74;37.10;100362.11;2826934;82;21011;-89
2022/07/28 14:47:52;;;;;;;5.12;1.32;;;;;;;28.64;37.45;100381.91;2814354;82;21004;-90
2022/07/28 15:06:50;;;;;;;7.05;1.02;;;;;;;28.70;37.74;100386.95;2979159;79;22386;-86
2022/07/28 15:10:52;;;;;;;6.95;0.82;;;;;;;28.86;37.28;100386.16;2911948;80;21042;-89
2022/07/28 15:14:54;;;;;;;3.08;1.10;;;;;;;28.93;37.08;100377.80;2920726;79;20982;-89
2022/07/28 15:18:57;;;;;;;1.57;1.00;;;;;;;28.96;37.23;100381.41;2891526;80;21027;-88
2022/07/28 15:23:04;;;;;;;2.10;1.90;;;;;;;28.76;37.26;100371.72;2927312;79;21082;-88
2022/07/28 15:27:06;;;;;;;3.70;1.37;;;;;;;28.62;37.10;100368.45;2896948;80;21050;-86
2022/07/28 15:31:09;;;;;;;2.10;0.50;;;;;;;28.47;37.43;100370.89;2854449;81;21047;-87
2022/07/28 15:35:11;;;;;;;2.92;1.17;;;;;;;28.36;37.27;100365.76;2893344;81;21663;-88
2022/07/28 15:39:13;;;;;;;3.20;0.78;;;;;;;28.38;38.08;100362.23;2904699;80;21000;-90
2022/07/28 15:43:15;;;;;;;1.47;1.10;;;;;;;28.40;37.83;100363.38;2881445;81;21605;-89
2022/07/28 15:47:17;;;;;;;1.67;0.82;;;;;;;28.36;38.02;100363.87;2836048;81;20953;-87
2022/07/28 15:51:19;;;;;;;2.45;0.85;;;;;;;28.21;37.83;100358.92;2869839;81;21562;-88
2022/07/28 15:55:21;;;;;;;7.35;1.85;;;;;;;28.17;38.51;100358.27;2877248;80;21060;-88
2022/07/28 15:59:23;;;;;;;2.62;1.32;;;;;;;28.04;38.83;100356.06;2900620;80;21111;-84
2022/07/28 16:03:25;;;;;;;5.25;1.22;;;;;;;28.23;37.97;100357.30;2855633;81;21072;-87
2022/07/28 16:07:28;;;;;;;2.33;0.50;;;;;;;28.18;37.60;100326.57;2870440;81;21070;-87
2022/07/28 16:11:29;;;;;;;4.33;1.47;;;;;;;28.42;37.65;100342.92;2878740;81;21044;-87
2022/07/28 16:15:31;;;;;;;1.52;0.72;;;;;;;28.42;37.65;100342.92;2867282;81;21047;-87
2022/07/28 16:19:33;;;;;;;2.98;1.35;;;;;;;28.49;37.29;100348.22;2893586;79;21020;-86
2022/07/28 16:23:35;;;;;;;1.65;0.80;;;;;;;28.38;36.93;100340.91;2875895;81;21071;-87
2022/07/28 16:27:36;;;;;;;2.08;0.80;;;;;;;28.28;37.28;100337.44;2895839;81;21289;-87
2022/07/28 16:31:39;;;;;;;2.92;1.30;;;;;;;28.10;37.30;100336.50;2841403;80;20995;-87
2022/07/28 16:35:40;;;;;;;5.33;1.80;;;;;;;27.70;37.89;100313.51;2876299;81;20987;-85
2022/07/28 16:39:43;;;;;;;3.75;1.15;;;;;;;27.70;37.89;100313.51;2849601;80;21433;-90
2022/07/28 16:43:45;;;;;;;4.53;1.10;;;;;;;27.70;38.29;100340.02;2896058;80;21102;-90
2022/07/28 16:47:47;;;;;;;4.15;1.30;;;;;;;27.69;38.42;100337.80;2896819;80;21078;-90
2022/07/28 16:51:49;;;;;;;13.93;1.15;;;;;;;27.66;38.67;100338.29;2903388;80;21063;-90
2022/07/28 16:55:53;;;;;;;2.08;1.00;;;;;;;27.51;38.46;100336.89;2901422;80;21050;-85
2022/07/28 16:59:55;;;;;;;3.45;1.10;;;;;;;27.32;38.94;100346.23;2867683;80;21015;-87
2022/07/28 17:03:56;;;;;;;4.35;0.90;;;;;;;27.14;39.13;100341.16;2851277;80;21110;-87
2022/07/28 17:07:57;;;;;;;3.55;0.82;;;;;;;27.02;39.12;100330.75;2905535;80;20987;-88
2022/07/28 17:11:59;;;;;;;3.35;1.60;;;;;;;26.83;39.51;100335.44;2889107;80;20998;-87
2022/07/28 17:16:03;;;;;;;3.55;1.07;;;;;;;26.71;40.10;100335.37;2847444;80;20988;-85
2022/07/28 17:20:05;;;;;;;20.02;1.57;;;;;;;26.55;39.88;100340.44;2892809;80;21547;-85
2022/07/28 17:24:10;;;;;;;2.02;0.95;;;;;;;26.44;40.54;100342.05;2896245;80;20997;-85
2022/07/28 17:28:17;;;;;;;2.72;1.02;;;;;;;26.33;40.70;100345.55;2756017;83;21051;-87
2022/07/28 17:32:18;;;;;;;2.95;0.80;;;;;;;26.17;40.54;100342.92;2772101;83;21084;-89
2022/07/28 17:36:20;;;;;;;2.20;0.85;;;;;;;25.98;40.69;100345.63;2788065;83;21042;-88
2022/07/28 17:40:23;;;;;;;7.75;1.25;;;;;;;25.80;40.98;100350.52;2763006;83;21083;-89
2022/07/28 17:44:25;;;;;;;15.43;7.83;;;;;;;25.69;41.31;100343.10;2777902;83;21123;-88
2022/07/28 17:48:27;;;;;;;16.45;6.35;;;;;;;25.52;41.57;100344.49;2769727;83;21022;-88
2022/07/28 17:52:29;;;;;;;13.62;7.92;;;;;;;25.42;41.68;100346.88;2829590;82;21031;-88
2022/07/28 17:56:35;;;;;;;15.15;11.15;;;;;;;25.27;41.84;100352.66;2810842;83;21064;-89
2022/07/28 18:00:38;;;;;;;4.70;1.45;;;;;;;25.15;42.16;100359.87;2800786;83;21043;-88
2022/07/28 18:04:40;;;;;;;2.92;2.47;;;;;;;25.00;42.49;100362.91;2836646;83;21062;-88
2022/07/28 18:08:44;;;;;;;4.20;2.08;;;;;;;24.79;42.81;100367.65;2727975;84;21602;-86
2022/07/28 18:12:46;;;;;;;3.67;1.10;;;;;;;24.66;42.91;100366.63;2790405;82;21027;-87
2022/07/28 18:16:47;;;;;;;3.12;1.42;;;;;;;24.56;42.96;100365.44;2823386;82;21028;-90
2022/07/28 18:20:49;;;;;;;4.17;1.60;;;;;;;24.39;43.24;100367.28;2807864;83;21024;-88
2022/07/28 18:24:50;;;;;;;4.67;1.52;;;;;;;24.26;43.56;100365.45;2780810;82;21147;-88
2022/07/28 18:28:52;;;;;;;1.70;0.90;;;;;;;24.10;43.71;100361.34;2817500;82;21063;-87
2022/07/28 18:32:54;;;;;;;4.67;1.30;;;;;;;23.96;43.86;100362.70;2799490;83;21085;-87
2022/07/28 18:36:55;;;;;;;3.72;1.17;;;;;;;23.82;44.05;100364.61;2771963;84;21016;-86
2022/07/28 18:40:57;;;;;;;6.28;1.67;;;;;;;23.64;44.37;100369.32;2798548;83;21079;-88
2022/07/28 18:44:59;;;;;;;1.65;1.20;;;;;;;23.50;44.60;100370.41;2811555;83;21102;-87
2022/07/28 18:49:00;;;;;;;1.65;1.07;;;;;;;23.38;44.60;100364.73;2800286;83;21083;-89
2022/07/28 18:53:02;;;;;;;16.77;1.42;;;;;;;23.25;44.91;100374.56;2746746;83;21067;-88
2022/07/28 18:57:04;;;;;;;4.60;1.22;;;;;;;23.13;45.12;100372.11;2885813;80;21075;-87
2022/07/28 19:01:05;;;;;;;2.50;1.30;;;;;;;23.03;45.54;100379.84;2891938;80;21042;-88
2022/07/28 19:05:08;;;;;;;1.62;1.00;;;;;;;22.94;45.82;100382.72;2870002;81;21016;-84